createdAt,value
2022-09-22T00:01:37.187Z,5.60
2022-09-22T00:04:08.258Z,5.50
2022-09-22T00:06:38.831Z,5.50
2022-09-22T00:09:08.895Z,5.50
2022-09-22T00:11:40.329Z,5.50
2022-09-22T00:14:10.510Z,5.50
2022-09-22T00:16:40.979Z,5.40
2022-09-22T00:19:15.826Z,5.30
2022-09-22T00:21:43.947Z,5.40
2022-09-22T00:24:12.992Z,5.30
2022-09-22T00:26:41.298Z,5.30
2022-09-22T00:29:10.187Z,5.30
2022-09-22T00:31:39.702Z,5.30
2022-09-22T00:34:16.763Z,5.30
2022-09-22T00:36:45.467Z,5.30
2022-09-22T00:39:14.414Z,5.30
2022-09-22T00:41:48.899Z,5.20
2022-09-22T00:44:36.963Z,5.20
2022-09-22T00:47:16.134Z,5.00
2022-09-22T00:49:51.318Z,5.00
2022-09-22T00:52:23.167Z,4.90
2022-09-22T00:54:53.911Z,5.00
2022-09-22T00:57:25.387Z,5.00
2022-09-22T00:59:54.684Z,5.00
2022-09-22T01:02:25.642Z,5.00
2022-09-22T01:04:55.049Z,5.00
2022-09-22T01:07:27.411Z,5.00
2022-09-22T01:09:56.034Z,4.90
2022-09-22T01:12:25.973Z,5.00
2022-09-22T01:15:10.927Z,5.00
2022-09-22T01:17:48.530Z,4.90
2022-09-22T01:20:26.067Z,4.90
2022-09-22T01:23:18.518Z,4.80
2022-09-22T01:26:22.236Z,4.80
2022-09-22T01:29:13.880Z,4.80
2022-09-22T01:31:52.924Z,4.80
2022-09-22T01:34:28.514Z,4.70
2022-09-22T01:37:03.903Z,4.70
2022-09-22T01:39:37.232Z,4.70
2022-09-22T01:42:11.494Z,4.70
2022-09-22T01:44:45.385Z,4.60
2022-09-22T01:47:19.404Z,4.50
2022-09-22T01:49:52.327Z,4.50
2022-09-22T01:52:23.728Z,4.50
2022-09-22T01:54:56.460Z,4.60
2022-09-22T01:57:31.115Z,4.70
2022-09-22T02:00:05.094Z,4.70
2022-09-22T02:02:46.208Z,4.70
2022-09-22T02:05:22.241Z,4.70
2022-09-22T02:07:53.280Z,4.70
2022-09-22T02:10:26.675Z,4.70
2022-09-22T02:12:55.471Z,4.70
2022-09-22T02:15:41.228Z,4.70
2022-09-22T02:18:15.595Z,4.70
2022-09-22T02:20:46.255Z,4.80
2022-09-22T02:23:14.433Z,4.80
2022-09-22T02:25:44.106Z,4.80
2022-09-22T02:28:16.520Z,4.80
2022-09-22T02:31:04.353Z,4.80
2022-09-22T02:33:39.197Z,4.80
2022-09-22T02:36:22.042Z,4.70
2022-09-22T02:38:55.552Z,4.60
2022-09-22T02:41:30.619Z,4.60
2022-09-22T02:44:02.912Z,4.60
2022-09-22T02:46:38.463Z,4.50
2022-09-22T02:49:11.206Z,4.60
2022-09-22T02:51:39.948Z,4.60
2022-09-22T02:54:07.909Z,4.50
2022-09-22T02:56:36.575Z,4.50
2022-09-22T02:59:04.696Z,4.40
2022-09-22T03:01:32.883Z,4.30
2022-09-22T03:04:00.985Z,4.20
2022-09-22T03:06:30.396Z,4.10
2022-09-22T03:08:58.413Z,4.10
2022-09-22T03:11:27.649Z,4.10
2022-09-22T03:13:56.002Z,4.00
2022-09-22T03:16:23.928Z,4.10
2022-09-22T03:18:51.980Z,4.00
2022-09-22T03:21:22.309Z,4.00
2022-09-22T03:23:52.120Z,4.00
2022-09-22T03:26:20.190Z,4.00
2022-09-22T03:28:48.706Z,3.90
2022-09-22T03:31:16.785Z,3.90
2022-09-22T03:33:48.148Z,3.80
2022-09-22T03:36:18.560Z,3.70
2022-09-22T03:38:46.533Z,3.70
2022-09-22T03:41:15.918Z,3.60
2022-09-22T03:43:43.943Z,3.50
2022-09-22T03:46:13.932Z,3.50
2022-09-22T03:48:45.178Z,3.40
2022-09-22T03:51:13.641Z,3.40
2022-09-22T03:53:41.677Z,3.30
2022-09-22T03:56:11.421Z,3.30
2022-09-22T03:58:41.351Z,3.30
2022-09-22T04:01:11.272Z,3.40
2022-09-22T04:03:39.906Z,3.40
2022-09-22T04:06:09.051Z,3.40
2022-09-22T04:08:37.596Z,3.40
2022-09-22T04:11:06.748Z,3.40
2022-09-22T04:13:36.889Z,3.40
2022-09-22T04:16:08.748Z,3.30
2022-09-22T04:18:40.151Z,3.30
2022-09-22T04:21:09.061Z,3.20
2022-09-22T04:23:37.397Z,3.20
2022-09-22T04:26:06.337Z,3.20
2022-09-22T04:28:34.645Z,3.20
2022-09-22T04:31:02.966Z,3.20
2022-09-22T04:33:32.483Z,3.10
2022-09-22T04:36:00.516Z,3.30
2022-09-22T04:38:30.971Z,3.30
2022-09-22T04:41:01.492Z,3.40
2022-09-22T04:43:29.740Z,3.40
2022-09-22T04:45:59.935Z,3.40
2022-09-22T04:48:28.314Z,3.40
2022-09-22T04:50:57.752Z,3.40
2022-09-22T04:53:26.915Z,3.40
2022-09-22T04:55:56.522Z,3.40
2022-09-22T04:58:25.101Z,3.40
2022-09-22T05:00:55.713Z,3.30
2022-09-22T05:03:23.884Z,3.30
2022-09-22T05:05:51.947Z,3.40
2022-09-22T05:08:21.477Z,3.30
2022-09-22T05:10:49.673Z,3.30
2022-09-22T05:13:18.196Z,3.30
2022-09-22T05:15:46.300Z,3.30
2022-09-22T05:18:14.673Z,3.20
2022-09-22T05:20:44.435Z,3.20
2022-09-22T05:23:12.448Z,3.20
2022-09-22T05:25:42.492Z,3.20
2022-09-22T05:28:11.102Z,3.30
2022-09-22T05:30:39.185Z,3.30
2022-09-22T05:33:07.340Z,3.40
2022-09-22T05:35:37.087Z,3.40
2022-09-22T05:38:05.428Z,3.40
2022-09-22T05:40:33.538Z,3.50
2022-09-22T05:43:03.053Z,3.50
2022-09-22T05:45:31.456Z,3.60
2022-09-22T05:47:59.509Z,3.60
2022-09-22T05:50:28.029Z,3.70
2022-09-22T05:53:04.705Z,3.80
2022-09-22T05:55:32.889Z,3.80
2022-09-22T05:58:02.944Z,3.90
2022-09-22T06:00:31.978Z,4.00
2022-09-22T06:03:00.025Z,4.10
2022-09-22T06:05:28.214Z,4.20
2022-09-22T06:08:02.793Z,4.20
2022-09-22T06:10:31.568Z,4.30
2022-09-22T06:13:00.357Z,4.50
2022-09-22T06:15:31.159Z,4.50
2022-09-22T06:17:59.106Z,4.60
2022-09-22T06:20:27.373Z,4.70
2022-09-22T06:22:56.661Z,4.80
2022-09-22T06:25:25.189Z,4.90
2022-09-22T06:28:02.190Z,5.00
2022-09-22T06:30:31.998Z,5.10
2022-09-22T06:33:00.395Z,5.20
2022-09-22T06:35:31.171Z,5.20
2022-09-22T06:37:59.607Z,5.40
2022-09-22T06:40:28.315Z,5.50
2022-09-22T06:42:58.761Z,5.60
2022-09-22T06:45:27.235Z,5.70
2022-09-22T06:48:00.526Z,5.80
2022-09-22T06:50:32.226Z,5.90
2022-09-22T06:53:01.339Z,6.00
2022-09-22T06:55:30.163Z,6.20
2022-09-22T06:58:02.893Z,6.30
2022-09-22T07:00:32.746Z,6.40
2022-09-22T07:03:07.150Z,6.60
2022-09-22T07:05:37.047Z,6.60
2022-09-22T07:08:06.034Z,6.80
2022-09-22T07:10:37.753Z,6.90
2022-09-22T07:13:06.544Z,6.90
2022-09-22T07:15:37.776Z,7.00
2022-09-22T07:18:07.687Z,7.20
2022-09-22T07:20:35.874Z,7.30
2022-09-22T07:23:03.914Z,7.50
2022-09-22T07:25:35.805Z,7.70
2022-09-22T07:28:05.177Z,7.80
2022-09-22T07:30:38.147Z,7.90
2022-09-22T07:33:07.742Z,8.20
2022-09-22T07:35:38.187Z,8.30
2022-09-22T07:38:06.232Z,8.40
2022-09-22T07:40:34.488Z,8.60
2022-09-22T07:43:02.605Z,8.80
2022-09-22T07:45:30.611Z,8.90
2022-09-22T07:48:16.232Z,9.00
2022-09-22T07:50:54.374Z,9.10
2022-09-22T07:53:22.456Z,9.20
2022-09-22T07:55:52.445Z,9.30
2022-09-22T07:58:21.325Z,9.50
2022-09-22T08:00:49.313Z,9.60
2022-09-22T08:03:17.397Z,9.80
2022-09-22T08:05:49.594Z,9.90
2022-09-22T08:08:17.656Z,10.00
2022-09-22T08:10:45.669Z,10.20
2022-09-22T08:13:13.913Z,10.30
2022-09-22T08:15:43.227Z,10.50
2022-09-22T08:18:11.260Z,10.50
2022-09-22T08:20:45.073Z,10.60
2022-09-22T08:23:14.601Z,10.70
2022-09-22T08:25:43.168Z,10.80
2022-09-22T08:28:11.262Z,10.90
2022-09-22T08:30:39.452Z,11.00
2022-09-22T08:33:09.029Z,11.10
2022-09-22T08:35:37.406Z,11.30
2022-09-22T08:38:10.602Z,11.40
2022-09-22T08:40:49.515Z,11.60
2022-09-22T08:43:18.866Z,11.60
2022-09-22T08:45:48.335Z,11.40
2022-09-22T08:48:39.118Z,11.50
2022-09-22T08:51:30.686Z,11.60
2022-09-22T08:54:03.330Z,11.80
2022-09-22T08:56:37.797Z,12.10
2022-09-22T08:59:10.977Z,12.20
2022-09-22T09:01:55.575Z,12.30
2022-09-22T09:05:04.879Z,12.40
2022-09-22T09:07:45.727Z,12.60
2022-09-22T09:10:32.827Z,12.70
2022-09-22T09:13:14.545Z,12.70
2022-09-22T09:15:58.475Z,12.90
2022-09-22T09:18:32.554Z,13.10
2022-09-22T09:21:03.879Z,13.20
2022-09-22T09:26:28.771Z,13.60
2022-09-22T09:29:04.068Z,13.70
2022-09-22T09:31:37.407Z,13.80
2022-09-22T09:34:08.230Z,14.00
2022-09-22T09:36:52.581Z,14.20
2022-09-22T09:39:29.167Z,14.40
2022-09-22T09:41:58.348Z,14.50
2022-09-22T09:44:31.589Z,14.60
2022-09-22T09:47:10.029Z,14.70
2022-09-22T09:49:38.458Z,14.80
2022-09-22T09:52:12.320Z,14.70
2022-09-22T09:54:41.972Z,14.80
2022-09-22T09:57:12.403Z,14.80
2022-09-22T10:00:18.341Z,14.90
2022-09-22T10:02:50.962Z,15.00
2022-09-22T10:05:26.586Z,15.10
2022-09-22T10:07:59.054Z,15.30
2022-09-22T10:10:35.475Z,15.50
2022-09-22T10:13:34.829Z,15.60
2022-09-22T10:16:23.060Z,15.60
2022-09-22T10:18:53.152Z,15.90
2022-09-22T10:21:22.822Z,16.00
2022-09-22T10:23:52.104Z,16.20
2022-09-22T10:26:26.191Z,16.40
2022-09-22T10:29:20.959Z,16.60
2022-09-22T10:32:05.790Z,17.10
2022-09-22T10:34:35.642Z,17.20
2022-09-22T10:37:10.508Z,17.50
2022-09-22T10:39:44.184Z,17.80
2022-09-22T10:42:34.436Z,17.70
2022-09-22T10:45:05.665Z,18.10
2022-09-22T10:47:52.949Z,18.20
2022-09-22T10:50:28.965Z,18.20
2022-09-22T10:53:04.952Z,18.40
2022-09-22T10:55:38.425Z,18.70
2022-09-22T10:58:27.771Z,18.70
2022-09-22T11:01:09.319Z,18.50
2022-09-22T11:04:03.438Z,18.40
2022-09-22T11:07:06.774Z,18.40
2022-09-22T11:09:59.308Z,18.60
2022-09-22T11:12:42.621Z,18.60
2022-09-22T11:15:30.716Z,18.50
2022-09-22T11:18:19.112Z,18.10
2022-09-22T11:20:53.630Z,17.70
2022-09-22T11:23:45.578Z,17.40
2022-09-22T11:26:44.600Z,17.50
2022-09-22T11:29:47.194Z,17.80
2022-09-22T11:32:38.525Z,18.00
2022-09-22T11:35:28.437Z,17.90
2022-09-22T11:38:13.189Z,18.00
2022-09-22T11:41:04.425Z,17.60
2022-09-22T11:43:53.461Z,17.20
2022-09-22T11:46:27.755Z,17.00
2022-09-22T11:49:09.990Z,16.80
2022-09-22T11:51:52.957Z,16.70
2022-09-22T11:54:40.879Z,16.50
2022-09-22T11:57:12.506Z,16.40
2022-09-22T11:59:45.042Z,16.30
2022-09-22T12:02:26.649Z,16.30
2022-09-22T12:05:00.282Z,16.40
2022-09-22T12:07:57.137Z,16.60
2022-09-22T12:10:34.638Z,17.10
2022-09-22T12:13:02.803Z,17.00
2022-09-22T12:15:36.822Z,16.80
2022-09-22T12:18:36.048Z,16.60
2022-09-22T12:21:07.837Z,16.50
2022-09-22T12:23:41.295Z,16.40
2022-09-22T12:26:27.280Z,16.40
2022-09-22T12:28:58.736Z,16.40
2022-09-22T12:31:36.037Z,16.30
2022-09-22T12:34:06.760Z,16.20
2022-09-22T12:36:37.581Z,16.20
2022-09-22T12:39:18.850Z,16.60
2022-09-22T12:41:52.272Z,17.00
2022-09-22T12:44:23.026Z,17.30
2022-09-22T12:46:52.061Z,17.60
2022-09-22T12:49:22.750Z,17.80
2022-09-22T12:51:52.051Z,18.00
2022-09-22T12:54:45.784Z,17.80
2022-09-22T12:57:31.344Z,17.50
2022-09-22T13:00:23.177Z,17.40
2022-09-22T13:02:51.716Z,17.70
2022-09-22T13:05:37.349Z,17.90
2022-09-22T13:08:05.670Z,18.20
2022-09-22T13:10:56.226Z,18.10
2022-09-22T13:13:44.425Z,18.30
2022-09-22T13:16:37.405Z,18.40
2022-09-22T13:19:11.050Z,18.00
2022-09-22T13:21:41.620Z,17.90
2022-09-22T13:24:25.042Z,18.10
2022-09-22T13:27:05.270Z,18.00
2022-09-22T13:29:36.437Z,18.20
2022-09-22T13:32:18.500Z,18.10
2022-09-22T13:34:46.918Z,17.70
2022-09-22T13:37:18.884Z,17.40
2022-09-22T13:39:49.415Z,17.20
2022-09-22T13:42:22.155Z,16.90
2022-09-22T13:44:56.722Z,16.90
2022-09-22T13:47:27.124Z,16.80
2022-09-22T13:49:58.066Z,16.70
2022-09-22T13:52:29.869Z,16.70
2022-09-22T13:55:05.252Z,16.80
2022-09-22T13:57:37.272Z,17.00
2022-09-22T14:00:09.064Z,17.30
2022-09-22T14:02:44.812Z,17.50
2022-09-22T14:05:19.191Z,17.60
2022-09-22T14:08:08.231Z,17.80
2022-09-22T14:10:41.037Z,17.90
2022-09-22T14:13:42.397Z,18.00
2022-09-22T14:16:17.417Z,18.00
2022-09-22T14:18:50.026Z,18.10
2022-09-22T14:21:18.595Z,18.00
2022-09-22T14:23:49.399Z,18.00
2022-09-22T14:26:33.470Z,18.10
2022-09-22T14:29:15.090Z,18.00
2022-09-22T14:31:47.063Z,18.00
2022-09-22T14:34:23.166Z,17.90
2022-09-22T14:36:53.142Z,17.80
2022-09-22T14:39:31.805Z,17.80
2022-09-22T14:42:08.974Z,17.70
2022-09-22T14:44:44.631Z,17.60
2022-09-22T14:47:27.658Z,17.50
2022-09-22T14:50:19.112Z,17.30
2022-09-22T14:52:58.598Z,17.00
2022-09-22T14:55:31.454Z,16.80
2022-09-22T14:58:04.573Z,16.70
2022-09-22T15:00:50.477Z,16.60
2022-09-22T15:03:27.001Z,16.40
2022-09-22T15:05:56.480Z,16.20
2022-09-22T15:08:30.117Z,16.10
2022-09-22T15:11:00.355Z,16.00
2022-09-22T15:13:31.763Z,15.90
2022-09-22T15:15:59.980Z,15.90
2022-09-22T15:18:31.071Z,15.80
2022-09-22T15:21:10.970Z,15.80
2022-09-22T15:23:42.529Z,15.80
2022-09-22T15:26:16.880Z,15.80
2022-09-22T15:28:47.677Z,15.90
2022-09-22T15:31:26.532Z,15.90
2022-09-22T15:33:57.027Z,16.00
2022-09-22T15:36:26.212Z,16.00
2022-09-22T15:39:00.044Z,16.00
2022-09-22T15:41:31.690Z,16.00
2022-09-22T15:43:59.945Z,15.90
2022-09-22T15:46:33.837Z,15.90
2022-09-22T15:49:08.812Z,15.90
2022-09-22T15:51:37.475Z,15.80
2022-09-22T15:54:13.844Z,15.80
2022-09-22T15:56:42.460Z,15.80
2022-09-22T15:59:17.912Z,15.80
2022-09-22T16:01:46.259Z,15.70
2022-09-22T16:04:16.189Z,15.60
2022-09-22T16:06:50.916Z,15.50
2022-09-22T16:09:21.647Z,15.50
2022-09-22T16:11:49.945Z,15.40
2022-09-22T16:14:22.187Z,15.40
2022-09-22T16:16:52.786Z,15.30
2022-09-22T16:19:22.170Z,15.20
2022-09-22T16:21:51.926Z,15.20
2022-09-22T16:24:22.251Z,15.10
2022-09-22T16:26:51.334Z,15.00
2022-09-22T16:29:19.421Z,14.90
2022-09-22T16:31:47.478Z,14.90
2022-09-22T16:34:15.872Z,14.80
2022-09-22T16:36:46.245Z,14.70
2022-09-22T16:39:14.408Z,14.60
2022-09-22T16:41:46.568Z,14.50
2022-09-22T16:44:15.662Z,14.40
2022-09-22T16:46:43.823Z,14.20
2022-09-22T16:49:13.807Z,14.20
2022-09-22T16:51:43.354Z,14.10
2022-09-22T16:54:14.421Z,14.00
2022-09-22T16:56:44.199Z,13.90
2022-09-22T16:59:15.069Z,13.80
2022-09-22T17:01:43.971Z,13.70
2022-09-22T17:04:13.833Z,13.70
2022-09-22T17:06:41.986Z,13.60
2022-09-22T17:09:12.501Z,13.50
2022-09-22T17:11:42.250Z,13.40
2022-09-22T17:14:13.557Z,13.30
2022-09-22T17:16:43.292Z,13.20
2022-09-22T17:19:12.897Z,13.10
2022-09-22T17:21:41.324Z,13.00
2022-09-22T17:24:09.988Z,12.90
2022-09-22T17:26:42.828Z,12.90
2022-09-22T17:29:10.942Z,12.80
2022-09-22T17:31:41.565Z,12.70
2022-09-22T17:34:10.480Z,12.60
2022-09-22T17:36:41.201Z,12.70
2022-09-22T17:39:10.732Z,12.60
2022-09-22T17:41:46.963Z,12.50
2022-09-22T17:44:21.185Z,12.40
2022-09-22T17:47:07.466Z,12.40
2022-09-22T17:49:53.200Z,12.30
2022-09-22T17:52:41.237Z,12.20
2022-09-22T17:55:15.321Z,12.00
2022-09-22T17:57:46.377Z,11.80
2022-09-22T18:00:16.703Z,11.60
2022-09-22T18:02:45.074Z,11.50
2022-09-22T18:05:15.491Z,11.40
2022-09-22T18:07:43.766Z,11.30
2022-09-22T18:10:16.970Z,11.20
2022-09-22T18:12:46.517Z,11.10
2022-09-22T18:15:17.280Z,11.10
2022-09-22T18:17:45.638Z,11.00
2022-09-22T18:20:16.318Z,10.90
2022-09-22T18:22:48.405Z,10.90
2022-09-22T18:25:19.380Z,10.90
2022-09-22T18:27:49.408Z,10.80
2022-09-22T18:30:20.079Z,10.80
2022-09-22T18:32:55.270Z,10.70
2022-09-22T18:35:24.110Z,10.60
2022-09-22T18:37:52.147Z,10.60
2022-09-22T18:40:20.254Z,10.40
2022-09-22T18:42:50.143Z,10.30
2022-09-22T18:45:18.350Z,10.10
2022-09-22T18:47:46.735Z,10.00
2022-09-22T18:50:14.956Z,9.80
2022-09-22T18:52:46.605Z,9.70
2022-09-22T18:55:19.038Z,9.70
2022-09-22T18:57:48.686Z,9.70
2022-09-22T19:00:17.223Z,9.70
2022-09-22T19:02:46.253Z,9.60
2022-09-22T19:05:16.562Z,9.60
2022-09-22T19:07:47.560Z,9.50
2022-09-22T19:10:20.433Z,9.40
2022-09-22T19:12:50.176Z,9.30
2022-09-22T19:15:20.991Z,9.30
2022-09-22T19:17:50.490Z,9.20
2022-09-22T19:20:20.962Z,9.20
2022-09-22T19:22:50.355Z,9.10
2022-09-22T19:25:21.653Z,9.00
2022-09-22T19:27:52.422Z,9.00
2022-09-22T19:30:24.041Z,9.00
2022-09-22T19:32:54.368Z,8.90
2022-09-22T19:35:22.723Z,8.80
2022-09-22T19:37:51.772Z,8.80
2022-09-22T19:40:24.666Z,8.80
2022-09-22T19:42:55.287Z,8.70
2022-09-22T19:45:24.129Z,8.70
2022-09-22T19:47:56.212Z,8.80
2022-09-22T19:50:24.346Z,8.80
2022-09-22T19:52:52.452Z,8.70
2022-09-22T19:55:22.788Z,8.70
2022-09-22T19:57:52.976Z,8.70
2022-09-22T20:00:25.949Z,8.60
2022-09-22T20:02:58.467Z,8.60
2022-09-22T20:05:29.120Z,8.60
2022-09-22T20:07:57.378Z,8.50
2022-09-22T20:10:25.785Z,8.40
2022-09-22T20:12:54.147Z,8.40
2022-09-22T20:15:23.689Z,8.40
2022-09-22T20:17:52.074Z,8.30
2022-09-22T20:20:22.605Z,8.20
2022-09-22T20:22:58.026Z,8.20
2022-09-22T20:25:28.100Z,8.10
2022-09-22T20:27:57.144Z,8.10
2022-09-22T20:30:27.411Z,8.00
2022-09-22T20:32:55.436Z,8.00
2022-09-22T20:35:24.165Z,7.90
2022-09-22T20:37:52.438Z,7.90
2022-09-22T20:40:23.117Z,7.80
2022-09-22T20:42:53.096Z,7.70
2022-09-22T20:45:22.851Z,7.70
2022-09-22T20:47:52.229Z,7.70
2022-09-22T20:50:21.121Z,7.60
2022-09-22T20:52:49.279Z,7.60
2022-09-22T20:55:18.070Z,7.50
2022-09-22T20:57:46.117Z,7.50
2022-09-22T21:00:16.895Z,7.40
2022-09-22T21:02:45.653Z,7.30
2022-09-22T21:05:15.152Z,7.20
2022-09-22T21:07:43.183Z,7.20
2022-09-22T21:10:28.715Z,7.20
2022-09-22T21:12:58.529Z,7.20
2022-09-22T21:15:26.657Z,7.20
2022-09-22T21:17:54.697Z,7.10
2022-09-22T21:20:23.978Z,7.10
2022-09-22T21:22:53.003Z,7.00
2022-09-22T21:25:20.941Z,7.10
2022-09-22T21:27:51.458Z,7.00
2022-09-22T21:30:19.533Z,7.00
2022-09-22T21:32:47.945Z,7.00
2022-09-22T21:35:17.001Z,6.90
2022-09-22T21:37:46.352Z,6.80
2022-09-22T21:40:17.530Z,6.80
2022-09-22T21:42:45.627Z,6.80
2022-09-22T21:45:13.795Z,6.70
2022-09-22T21:47:41.715Z,6.80
2022-09-22T21:50:10.770Z,6.70
2022-09-22T21:52:39.346Z,6.80
2022-09-22T21:55:10.017Z,6.80
2022-09-22T21:57:38.069Z,6.70
2022-09-22T22:00:08.281Z,6.70
2022-09-22T22:02:53.860Z,6.60
2022-09-22T22:05:21.899Z,6.60
2022-09-22T22:07:49.924Z,6.50
2022-09-22T22:10:19.319Z,6.60
2022-09-22T22:12:47.377Z,6.50
2022-09-22T22:15:15.502Z,6.50
2022-09-22T22:17:43.583Z,6.40
2022-09-22T22:20:11.545Z,6.30
2022-09-22T22:22:39.554Z,6.40
2022-09-22T22:25:13.632Z,6.40
2022-09-22T22:27:45.542Z,6.30
2022-09-22T22:30:14.265Z,6.30
2022-09-22T22:32:42.380Z,6.30
2022-09-22T22:35:11.615Z,6.30
2022-09-22T22:37:39.972Z,6.30
2022-09-22T22:40:08.837Z,6.30
2022-09-22T22:42:36.855Z,6.30
2022-09-22T22:45:06.959Z,6.30
2022-09-22T22:47:34.971Z,6.40
2022-09-22T22:50:03.057Z,6.40
2022-09-22T22:52:31.320Z,6.40
2022-09-22T22:54:59.350Z,6.30
2022-09-22T22:57:28.347Z,6.20
2022-09-22T22:59:57.239Z,6.20
2022-09-22T23:02:26.722Z,6.10
2022-09-22T23:04:54.778Z,6.00
2022-09-22T23:07:22.760Z,6.00
2022-09-22T23:10:06.053Z,6.00
2022-09-22T23:12:35.006Z,6.00
2022-09-22T23:15:03.003Z,6.00
2022-09-22T23:17:32.595Z,5.90
2022-09-22T23:20:00.818Z,5.90
2022-09-22T23:22:31.057Z,5.80
2022-09-22T23:24:59.322Z,5.90
2022-09-22T23:27:29.276Z,5.80
2022-09-22T23:29:57.277Z,5.80
2022-09-22T23:32:25.492Z,5.80
2022-09-22T23:34:54.833Z,5.80
2022-09-22T23:37:24.724Z,5.80
2022-09-22T23:39:53.026Z,5.80
2022-09-22T23:42:21.080Z,5.80
2022-09-22T23:44:49.084Z,5.70
2022-09-22T23:47:17.079Z,5.70
2022-09-22T23:49:47.493Z,5.70
2022-09-22T23:52:16.776Z,5.60
2022-09-22T23:54:46.216Z,5.60
2022-09-22T23:57:14.106Z,5.60
2022-09-22T23:59:42.091Z,5.60
